Milagro, Argentina
Current Conditions -  °F | °C
As of 5:00 PM on Friday 31 Oct 2014 (Local Time) from SACO Reporting Station
Overcast Overcast  
Wind Chill: 59°   Ceiling: 2000
Heat Index: 59°   Visibility: 6mi
Dew Point: 46°   Wind: 12mph
Humidity: 63%   Direction: 180°S
Pressure: 30.06"   Gusts: NA
Location:  31.02°S, 65.98°W
Report Text: SACO 312000Z 18010KT 9999 SCT013 OVC020 15/08 Q1018
Loading
Personal Weather Stations






























Interactive Weather Map New forecast layout! Learn more

10-Day Weather Forecast

Advertisements
Track Severe Weather on mobile